Terminal Aerodrome Forecast
Issued by NWS

Home | Current Version | Previous Version | Text Only | Print | Product List | Glossary On
Versions: 1 2 3 4 5 6 7 8 9 10 11 12 13 14 15 16 17 18 19 20 21 22 23 24 25 26
000
FTUS43 KOAX 240247 AAB
TAFBFF
TAF AMD
KBFF 240247Z 2403/2424 11013KT 4SM -RA BR VCTS SCT005CB OVC015
      TEMPO 2403/2406 2SM -TSRA OVC005CB
     FM240600 10012KT 3SM -RA BR OVC003
     FM241000 11008KT 1SM -DZ BR OVC001
     FM241400 12010KT 4SM BR OVC003
     FM241600 12012KT P6SM VCSH OVC015
     FM241800 12012G22KT P6SM VCTS BKN025CB=

USA.gov is the U.S. government's official web portal to all federal, state and local government web resources and services.